createdAt,value
2019-03-16T00:02:26.135Z,11.50
2019-03-16T00:06:31.648Z,11.00
2019-03-16T00:10:37.041Z,14.77
2019-03-16T00:14:42.570Z,13.53
2019-03-16T00:18:47.892Z,10.47
2019-03-16T00:22:53.345Z,8.83
2019-03-16T00:26:58.689Z,8.83
2019-03-16T00:31:05.316Z,6.00
2019-03-16T00:35:11.278Z,3.40
2019-03-16T00:39:16.796Z,2.97
2019-03-16T00:43:22.268Z,3.10
2019-03-16T00:47:27.717Z,3.10
2019-03-16T00:51:33.516Z,2.70
2019-03-16T00:55:39.016Z,3.27
2019-03-16T00:59:44.708Z,3.00
2019-03-16T01:03:50.425Z,2.50
2019-03-16T01:07:55.882Z,2.70
2019-03-16T01:12:01.365Z,2.10
2019-03-16T01:16:06.809Z,2.43
2019-03-16T01:20:12.297Z,1.93
2019-03-16T01:24:18.036Z,1.83
2019-03-16T01:28:23.414Z,2.47
2019-03-16T01:32:40.187Z,1.70
2019-03-16T01:36:36.152Z,1.97
2019-03-16T01:40:41.589Z,1.13
2019-03-16T01:44:47.326Z,2.27
2019-03-16T01:48:52.709Z,1.90
2019-03-16T01:52:58.065Z,2.30
2019-03-16T01:57:03.559Z,3.07
2019-03-16T02:01:09.070Z,1.77
2019-03-16T02:05:14.533Z,2.53
2019-03-16T02:09:19.900Z,2.40
2019-03-16T02:13:25.443Z,2.07
2019-03-16T02:17:30.845Z,2.10
2019-03-16T02:21:36.379Z,1.60
2019-03-16T02:25:41.973Z,2.50
2019-03-16T02:29:47.350Z,2.23
2019-03-16T02:33:53.111Z,2.50
2019-03-16T02:37:58.462Z,2.13
2019-03-16T02:42:03.970Z,2.37
2019-03-16T02:46:09.424Z,2.10
2019-03-16T02:50:15.021Z,2.33
2019-03-16T02:54:20.449Z,2.23
2019-03-16T02:58:25.928Z,2.30
2019-03-16T03:02:31.429Z,2.73
2019-03-16T03:06:37.156Z,2.53
2019-03-16T03:10:42.552Z,2.10
2019-03-16T03:14:47.992Z,2.60
2019-03-16T03:18:53.625Z,2.53
2019-03-16T03:22:59.339Z,2.50
2019-03-16T03:27:04.787Z,2.40
2019-03-16T03:31:10.658Z,2.57
2019-03-16T03:35:16.100Z,3.10
2019-03-16T03:39:21.536Z,2.93
2019-03-16T03:43:27.420Z,3.20
2019-03-16T03:47:32.835Z,2.87
2019-03-16T03:51:38.321Z,3.03
2019-03-16T03:55:43.761Z,3.00
2019-03-16T03:59:49.257Z,4.10
2019-03-16T04:03:54.960Z,4.10
2019-03-16T04:08:00.550Z,4.40
2019-03-16T04:12:06.003Z,6.50
2019-03-16T04:16:11.477Z,6.77
2019-03-16T04:20:16.833Z,7.10
2019-03-16T04:24:22.277Z,9.40
2019-03-16T04:28:28.316Z,8.83
2019-03-16T04:32:33.837Z,8.73
2019-03-16T04:36:39.560Z,10.47
2019-03-16T04:40:45.263Z,10.30
2019-03-16T04:44:50.685Z,10.27
2019-03-16T04:48:56.378Z,10.73
2019-03-16T04:53:01.856Z,9.53
2019-03-16T04:57:07.290Z,10.27
2019-03-16T05:01:12.728Z,7.37
2019-03-16T05:05:18.072Z,8.33
2019-03-16T05:09:23.822Z,9.17
2019-03-16T05:13:29.175Z,6.97
2019-03-16T05:17:34.636Z,7.00
2019-03-16T05:21:40.051Z,4.73
2019-03-16T05:25:45.422Z,6.07
2019-03-16T05:29:51.115Z,5.73
2019-03-16T05:33:56.466Z,5.03
2019-03-16T05:38:01.823Z,5.90
2019-03-16T05:42:07.285Z,5.33
2019-03-16T05:46:12.735Z,5.57
2019-03-16T05:50:18.202Z,5.23
2019-03-16T05:54:23.691Z,4.40
2019-03-16T05:58:29.180Z,5.13
2019-03-16T06:02:34.689Z,5.80
2019-03-16T06:06:40.157Z,5.93
2019-03-16T06:10:45.550Z,6.40
2019-03-16T06:14:50.902Z,6.33
2019-03-16T06:18:56.271Z,5.53
2019-03-16T06:23:02.013Z,4.90
2019-03-16T06:27:07.489Z,4.50
2019-03-16T06:31:12.917Z,5.50
2019-03-16T06:35:24.497Z,4.37
2019-03-16T06:39:25.534Z,5.10
2019-03-16T06:43:30.969Z,5.20
2019-03-16T06:47:36.508Z,4.97
2019-03-16T06:51:42.196Z,4.47
2019-03-16T06:55:47.775Z,4.80
2019-03-16T06:59:53.226Z,4.40
2019-03-16T07:03:58.720Z,3.77
2019-03-16T07:08:04.230Z,3.80
2019-03-16T07:12:09.710Z,3.40
2019-03-16T07:16:15.157Z,3.87
2019-03-16T07:20:20.598Z,3.93
2019-03-16T07:24:26.073Z,4.30
2019-03-16T07:28:31.823Z,5.37
2019-03-16T07:32:37.526Z,5.50
2019-03-16T07:36:42.891Z,5.43
2019-03-16T07:40:48.822Z,3.37
2019-03-16T07:45:07.269Z,3.93
2019-03-16T07:49:01.848Z,3.33
2019-03-16T07:53:07.592Z,2.23
2019-03-16T07:57:20.572Z,2.60
2019-03-16T08:01:26.010Z,1.90
2019-03-16T08:05:31.431Z,1.83
2019-03-16T08:09:36.988Z,2.30
2019-03-16T08:13:42.503Z,1.87
2019-03-16T08:17:47.983Z,1.90
2019-03-16T08:21:53.483Z,1.73
2019-03-16T08:25:58.858Z,1.47
2019-03-16T08:30:05.163Z,2.00
2019-03-16T08:34:10.549Z,2.27
2019-03-16T08:38:15.926Z,1.90
2019-03-16T08:42:21.992Z,1.73
2019-03-16T08:46:27.473Z,1.90
2019-03-16T08:50:32.864Z,1.70
2019-03-16T08:54:38.263Z,1.70
2019-03-16T08:58:43.601Z,1.80
2019-03-16T09:02:49.071Z,1.57
2019-03-16T09:06:54.825Z,1.40
2019-03-16T09:11:00.263Z,1.57
2019-03-16T09:15:06.838Z,0.90
2019-03-16T09:19:12.318Z,1.00
2019-03-16T09:23:18.043Z,1.20
2019-03-16T09:27:31.082Z,1.53
2019-03-16T09:31:30.609Z,1.30
2019-03-16T09:35:35.962Z,1.07
2019-03-16T09:39:41.402Z,1.40
2019-03-16T09:43:46.798Z,1.60
2019-03-16T09:47:52.455Z,1.30
2019-03-16T09:51:57.851Z,1.43
2019-03-16T09:56:03.294Z,1.93
2019-03-16T10:00:11.344Z,2.67
2019-03-16T10:04:16.843Z,2.87
2019-03-16T10:08:22.972Z,2.50
2019-03-16T10:12:28.420Z,1.57
2019-03-16T10:16:34.282Z,1.93
2019-03-16T10:20:39.753Z,1.60
2019-03-16T10:24:45.679Z,1.50
2019-03-16T10:28:51.058Z,1.33
2019-03-16T10:32:56.354Z,1.30
2019-03-16T10:37:01.918Z,1.17
2019-03-16T10:41:07.373Z,1.33
2019-03-16T10:45:13.272Z,1.20
2019-03-16T10:49:18.662Z,1.40
2019-03-16T10:53:24.544Z,1.10
2019-03-16T10:57:29.999Z,1.03
2019-03-16T11:01:35.798Z,1.27
2019-03-16T11:05:41.553Z,1.00
2019-03-16T11:09:47.080Z,0.90
2019-03-16T11:13:52.557Z,1.20
2019-03-16T11:17:58.286Z,1.17
2019-03-16T11:22:03.803Z,1.30
2019-03-16T11:26:09.657Z,1.10
2019-03-16T11:30:15.165Z,1.00
2019-03-16T11:34:20.539Z,1.00
2019-03-16T11:38:26.489Z,1.00
2019-03-16T11:42:32.800Z,1.53
2019-03-16T11:46:38.395Z,1.37
2019-03-16T11:50:43.859Z,1.60
2019-03-16T11:54:49.626Z,1.27
2019-03-16T11:58:54.989Z,1.30
2019-03-16T12:03:00.553Z,1.60
2019-03-16T12:07:05.969Z,1.30
2019-03-16T12:11:11.416Z,1.20
2019-03-16T12:15:17.167Z,1.50
2019-03-16T12:19:22.963Z,1.37
2019-03-16T12:23:28.472Z,1.97
2019-03-16T12:27:34.029Z,1.40
2019-03-16T12:31:39.568Z,1.70
2019-03-16T12:35:45.035Z,1.30
2019-03-16T12:39:51.639Z,1.40
2019-03-16T12:43:56.935Z,1.03
2019-03-16T12:48:02.782Z,1.00
2019-03-16T12:52:08.327Z,1.83
2019-03-16T12:56:13.801Z,1.47
2019-03-16T13:00:19.421Z,1.10
2019-03-16T13:04:25.353Z,1.43
2019-03-16T13:08:30.738Z,1.00
2019-03-16T13:12:39.052Z,1.40
2019-03-16T13:16:43.890Z,1.50
2019-03-16T13:20:49.599Z,1.40
2019-03-16T13:24:55.022Z,1.60
2019-03-16T13:29:00.520Z,1.30
2019-03-16T13:33:05.975Z,0.93
2019-03-16T13:37:11.473Z,1.00
2019-03-16T13:41:16.972Z,1.00
2019-03-16T13:45:22.239Z,1.30
2019-03-16T13:49:30.988Z,1.00
2019-03-16T13:53:36.451Z,1.40
2019-03-16T13:57:42.396Z,1.23
2019-03-16T14:01:48.408Z,1.17
2019-03-16T14:05:53.905Z,1.37
2019-03-16T14:09:59.357Z,1.53
2019-03-16T14:14:04.910Z,1.10
2019-03-16T14:18:10.390Z,0.97
2019-03-16T14:22:16.940Z,1.37
2019-03-16T14:26:22.672Z,1.10
2019-03-16T14:30:40.438Z,1.60
2019-03-16T14:34:35.540Z,1.20
2019-03-16T14:38:40.865Z,1.67
2019-03-16T14:42:47.258Z,1.20
2019-03-16T14:46:53.036Z,1.20
2019-03-16T14:50:58.477Z,1.30
2019-03-16T14:55:03.885Z,1.20
2019-03-16T14:59:09.338Z,1.27
2019-03-16T15:03:14.857Z,1.57
2019-03-16T15:07:20.641Z,1.40
2019-03-16T15:11:26.062Z,1.60
2019-03-16T15:15:31.522Z,1.30
2019-03-16T15:19:36.964Z,1.60
2019-03-16T15:23:42.438Z,1.50
2019-03-16T15:27:47.712Z,1.87
2019-03-16T15:31:53.168Z,1.30
2019-03-16T15:35:58.984Z,1.20
2019-03-16T15:40:04.610Z,1.03
2019-03-16T15:44:10.096Z,1.10
2019-03-16T15:48:15.574Z,1.80
2019-03-16T15:52:21.254Z,1.37
2019-03-16T15:56:27.846Z,1.17
2019-03-16T16:00:33.538Z,1.20
2019-03-16T16:04:38.945Z,1.10
2019-03-16T16:08:44.785Z,1.40
2019-03-16T16:12:50.561Z,1.60
2019-03-16T16:16:56.012Z,1.33
2019-03-16T16:21:01.457Z,1.40
2019-03-16T16:25:08.111Z,1.33
2019-03-16T16:29:13.591Z,1.00
2019-03-16T16:33:19.099Z,1.40
2019-03-16T16:37:24.844Z,2.07
2019-03-16T16:41:30.216Z,1.67
2019-03-16T16:45:35.610Z,1.50
2019-03-16T16:49:41.112Z,1.40
2019-03-16T16:53:46.569Z,1.30
2019-03-16T16:57:52.016Z,1.20
2019-03-16T17:01:57.397Z,1.60
2019-03-16T17:06:02.869Z,1.70
2019-03-16T17:10:10.474Z,1.67
2019-03-16T17:14:15.824Z,1.60
2019-03-16T17:18:21.336Z,1.50
2019-03-16T17:22:26.683Z,1.57
2019-03-16T17:26:32.718Z,1.47
2019-03-16T17:30:38.122Z,1.80
2019-03-16T17:34:43.690Z,1.40
2019-03-16T17:38:49.036Z,2.00
2019-03-16T17:42:54.479Z,1.23
2019-03-16T17:46:59.933Z,1.60
2019-03-16T17:51:05.376Z,2.07
2019-03-16T17:55:11.538Z,1.47
2019-03-16T17:59:16.842Z,1.87
2019-03-16T18:03:22.323Z,1.80
2019-03-16T18:07:27.902Z,1.70
2019-03-16T18:11:33.454Z,1.90
2019-03-16T18:15:38.753Z,2.10
2019-03-16T18:19:44.168Z,1.80
2019-03-16T18:23:49.905Z,2.17
2019-03-16T18:27:55.469Z,2.30
2019-03-16T18:32:07.686Z,2.40
2019-03-16T18:36:11.265Z,2.60
2019-03-16T18:40:15.430Z,2.60
2019-03-16T18:44:20.900Z,3.00
2019-03-16T18:48:26.613Z,2.97
2019-03-16T18:52:32.080Z,2.77
2019-03-16T18:56:37.466Z,3.70
2019-03-16T19:00:42.879Z,3.40
2019-03-16T19:04:48.327Z,3.33
2019-03-16T19:08:54.056Z,3.37
2019-03-16T19:12:59.839Z,3.33
2019-03-16T19:17:05.507Z,3.40
2019-03-16T19:21:11.212Z,3.10
2019-03-16T19:25:16.713Z,3.70
2019-03-16T19:29:22.287Z,3.13
2019-03-16T19:33:27.600Z,3.53
2019-03-16T19:37:33.066Z,3.30
2019-03-16T19:41:41.524Z,3.37
2019-03-16T19:45:46.303Z,3.63
2019-03-16T19:49:52.003Z,3.23
2019-03-16T19:53:57.574Z,3.80
2019-03-16T19:58:03.088Z,3.43
2019-03-16T20:02:08.492Z,3.20
2019-03-16T20:06:25.135Z,3.20
2019-03-16T20:10:21.150Z,3.33
2019-03-16T20:14:26.643Z,2.90
2019-03-16T20:18:32.235Z,3.17
2019-03-16T20:22:37.708Z,2.90
2019-03-16T20:26:43.213Z,3.40
2019-03-16T20:30:48.648Z,3.10
2019-03-16T20:34:54.088Z,2.87
2019-03-16T20:38:59.622Z,3.13
2019-03-16T20:43:05.263Z,3.40
2019-03-16T20:47:12.588Z,3.37
2019-03-16T20:51:17.989Z,3.70
2019-03-16T20:55:23.424Z,3.93
2019-03-16T20:59:28.910Z,3.67
2019-03-16T21:03:34.541Z,3.27
2019-03-16T21:07:40.019Z,3.37
2019-03-16T21:11:48.919Z,3.40
2019-03-16T21:15:53.809Z,3.50
2019-03-16T21:19:59.332Z,3.40
2019-03-16T21:24:07.324Z,3.57
2019-03-16T21:28:12.490Z,2.83
2019-03-16T21:32:18.028Z,3.20
2019-03-16T21:36:24.193Z,3.60
2019-03-16T21:40:29.853Z,3.30
2019-03-16T21:44:35.331Z,3.47
2019-03-16T21:48:40.783Z,2.97
2019-03-16T21:52:46.925Z,3.23
2019-03-16T21:56:52.206Z,2.60
2019-03-16T22:00:57.629Z,2.90
2019-03-16T22:05:06.396Z,3.07
2019-03-16T22:09:12.142Z,2.70
2019-03-16T22:13:18.127Z,3.00
2019-03-16T22:17:23.519Z,2.70
2019-03-16T22:21:29.252Z,2.90
2019-03-16T22:25:34.986Z,3.00
2019-03-16T22:29:40.704Z,3.37
2019-03-16T22:33:54.260Z,2.80
2019-03-16T22:37:53.108Z,3.03
2019-03-16T22:41:58.901Z,2.90
2019-03-16T22:46:04.338Z,2.97
2019-03-16T22:50:10.689Z,3.30
2019-03-16T22:54:16.088Z,3.50
2019-03-16T22:58:21.418Z,3.00
2019-03-16T23:02:26.951Z,2.33
2019-03-16T23:06:32.379Z,2.70
2019-03-16T23:10:37.826Z,2.43
2019-03-16T23:14:43.313Z,2.23
2019-03-16T23:18:48.967Z,2.60
2019-03-16T23:22:54.412Z,2.70
2019-03-16T23:26:59.850Z,2.63
2019-03-16T23:31:05.303Z,2.33
2019-03-16T23:35:11.019Z,2.30
2019-03-16T23:39:16.494Z,2.60
2019-03-16T23:43:21.849Z,2.27
2019-03-16T23:47:27.226Z,2.67
2019-03-16T23:51:32.796Z,2.03
2019-03-16T23:55:38.244Z,2.20
2019-03-16T23:59:43.601Z,2.00
